Santa Rita, Guam
Current Conditions -  °F | °C
As of 9:54 PM on Saturday 20 Dec 2014 (Local Time) from PGUM Reporting Station
Scattered Clouds Scattered Clouds  
Wind Chill: 83°   Ceiling: Unl
Heat Index: 90°   Visibility: 10mi
Dew Point: 75°   Wind: 13mph
Humidity: 77%   Direction: 70°ENE
Pressure: 29.91"   Gusts: NA
Location:  13.39°N, 144.67°E
Report Text: PGUM 201154Z 07011KT 10SM FEW021 SCT033 28/24 A2991 RMK AO2 SLP119 60000 T02830239 10306 20283 51012
Loading
Personal Weather Stations






























Interactive Weather Map New forecast layout! Learn more

10-Day Weather Forecast

Advertisements
Track Severe Weather on mobile